Address 0x0eca22de33faac4d6c5136f512ace576df8dee26

 
 
Txn Hash Method
Block
From
To
Value [Txn Fee]
0x455607887fd8b4011a67682a417cd442ff5a151d84c74ad22c3f0313687f115fTransfer96677382021-08-01 20:40:58178 days 5 hrs ago0x0eca22de33faac4d6c5136f512ace576df8dee26OUT0x6c73d8c28c1cc4ac75adc6953a81f063c4eac1ef13.266422415663657 BNB0.000105
0x50f893d1fba015719abc476cf08f829cbcb0b9fbf220a1cd4545431a3677da96Withdraw96677082021-08-01 20:39:28178 days 5 hrs ago0x0eca22de33faac4d6c5136f512ace576df8dee26OUT Binance: WBNB Token0 BNB0.00011164
0x56b24895fbe2d9db7d4dd0435e43942d020efc1deccb7165f668bcba10c50f68Remove Liquidity...96676722021-08-01 20:37:40178 days 5 hrs ago0x0eca22de33faac4d6c5136f512ace576df8dee26OUT PancakeSwap: Router0 BNB0.001370105
0x1c28941e505f176c72adbf64583ab4e8acfa80f38c24f57d269b12eb7ea961200xe50a4f8096675822021-08-01 20:33:10178 days 5 hrs ago0x0eca22de33faac4d6c5136f512ace576df8dee26OUT 0xf73efff99dabe70ba0790513c2fcef705f84e7860 BNB0.00029196
0xe575e280d3da98e79e476ee1e91d47c147683a2040c9b8d78f189acaed8e4f93Transfer96675662021-08-01 20:32:22178 days 5 hrs ago0x6c73d8c28c1cc4ac75adc6953a81f063c4eac1ef IN 0x0eca22de33faac4d6c5136f512ace576df8dee260.01 BNB0.000105
0x333ca59bcda3a683e2b8b5624f5f464a7ec9d5f8a33c4ea6d15831d03b80b152Transfer69396022021-04-27 20:45:01274 days 5 hrs ago0x0eca22de33faac4d6c5136f512ace576df8dee26OUT0x861b844eb0a7f19196b1d36618b240416267bb140.403902773075061 BNB0.000105
0xa8364b2d9422eeee8f9f759d63dbf534fd6cbbc6e7b977b26fd22d235f46a3f0Transfer69007582021-04-26 11:58:49275 days 14 hrs ago0x0eca22de33faac4d6c5136f512ace576df8dee26OUT0xf9025a6f3b54644c3afb35906dca4c993395806e0.05 BNB0.000105
0xeb385d05d9401a2ba1fb86bda7a8daeba476998129d71ab15c5a406156b99b4eTransfer68801352021-04-25 18:46:14276 days 7 hrs ago0x0eca22de33faac4d6c5136f512ace576df8dee26OUT0x6c73d8c28c1cc4ac75adc6953a81f063c4eac1ef0.1 BNB0.000105
0xb15183c6b65cea67a364383cfbfce6d10b3d65ddc2a2bc7d38c236160dbb41fbTransfer68596232021-04-25 1:36:04277 days 52 mins ago0x0eca22de33faac4d6c5136f512ace576df8dee26OUT0x6c73d8c28c1cc4ac75adc6953a81f063c4eac1ef0.5 BNB0.000105
0x10bbacc590cd4e1e210dbea2aeaa21abc5eccfadc489bafb9ccaa0bc04de205dTransfer68596032021-04-25 1:35:04277 days 53 mins ago0x0eca22de33faac4d6c5136f512ace576df8dee26OUT0x1631778a3769f93bb82ada64e2be4eacec4fcbdc3.3 BNB0.000105
0x4beb30fe0142ba90fb6ba89924571b009c22823b73b3cde1aae3c5343671e0efSwap Exact Token...68593512021-04-25 1:22:28277 days 1 hr ago0x0eca22de33faac4d6c5136f512ace576df8dee26OUT PancakeSwap: Router0 BNB0.000926785
0x326af759fc51eebdb62184750d3c79466f799cb48ed52a4e3665ccc8dc7a48e4Approve68593262021-04-25 1:21:13277 days 1 hr ago0x0eca22de33faac4d6c5136f512ace576df8dee26OUT 0xcd56a66b9fe194d1cbdd249f99e6a3799b65af7b0 BNB0.00022274
0xe06aa25e34a47eb697139fcd8e5b536c9d9b98996fd0a12738627fe933c42e42Transfer68587602021-04-25 0:52:55277 days 1 hr ago0x0eca22de33faac4d6c5136f512ace576df8dee26OUT0x6c73d8c28c1cc4ac75adc6953a81f063c4eac1ef2.5 BNB0.000105
0x24e3a7962b6cc3d32e0a2e56491312806118e4386fa6274b5b5efba514abda80Transfer68587402021-04-25 0:51:55277 days 1 hr ago0x0eca22de33faac4d6c5136f512ace576df8dee26OUT0xb67e49a45858f3cbf2bc2026a4347b55182797980.201101070801535 BNB0.000105
0xe711987401e62715db0df3daf8d9395d60cab7bf4b75af2d137e209265db9001Transfer68584542021-04-25 0:37:37277 days 1 hr ago0x0eca22de33faac4d6c5136f512ace576df8dee26OUT0x6c73d8c28c1cc4ac75adc6953a81f063c4eac1ef0.001 BNB0.000105
0xe1693bc478644c75f9e4263d59bb26ec42d7f40d3282b2e6c4726fb024da426bTransfer68563152021-04-24 22:50:00277 days 3 hrs ago0x0eca22de33faac4d6c5136f512ace576df8dee26OUT0x4f5a78a632d111b168c517ef8933c20dea8d3dae2 BNB0.000105
0x7efecb6585682b81e2bbf00a2f0c6a47e92d99b0d93365559d38bac3b0b33dbbTransfer68560832021-04-24 22:38:24277 days 3 hrs ago0x0eca22de33faac4d6c5136f512ace576df8dee26OUT 0xcd56a66b9fe194d1cbdd249f99e6a3799b65af7b0 BNB0.00058918
0xeb154a6e3952c981c4ebcc59a0fcf815e2f72c1026c96650906df2acff48387dRenounce Ownersh...68557792021-04-24 22:23:12277 days 4 hrs ago0x0eca22de33faac4d6c5136f512ace576df8dee26OUT 0xcd56a66b9fe194d1cbdd249f99e6a3799b65af7b0 BNB0.000077335
0x7f995cc5b63b9821a36b1e8d475d12aa98ba6dbb93143cadddada338c325dbb50x267dd10268553262021-04-24 22:00:33277 days 4 hrs ago0x0eca22de33faac4d6c5136f512ace576df8dee26OUT 0x9c55c9e02295b3e8c00501358e8289afc8b39edf0 BNB0.00303107
0x9bc8ddc46f344996549626809d5b32a106be0a1f0ede162267c9818cba0468c2Set Liquidity Fe...68549372021-04-24 21:41:05277 days 4 hrs ago0x0eca22de33faac4d6c5136f512ace576df8dee26OUT 0xcd56a66b9fe194d1cbdd249f99e6a3799b65af7b0 BNB0.00006862
0x8f0569f1274d5ed65dfa1b3cfa6b7f077db29be3aa4d68c5427b8caa8f77a5acSet Max Tx Perce...68549312021-04-24 21:40:47277 days 4 hrs ago0x0eca22de33faac4d6c5136f512ace576df8dee26OUT 0xcd56a66b9fe194d1cbdd249f99e6a3799b65af7b0 BNB0.00014296
0x3939702ff0195746f71b6fc9178691c61a3363fac0e29b3b551fa9d9a39a20d1Set Swap And Liq...68549172021-04-24 21:40:05277 days 4 hrs ago0x0eca22de33faac4d6c5136f512ace576df8dee26OUT 0xcd56a66b9fe194d1cbdd249f99e6a3799b65af7b0 BNB0.00007363
0x639cc5eaaeea2d2259dd143e3eeb10ff7dc0d51a869061673220e9575f50c250Set Tax Fee Perc...68549032021-04-24 21:39:23277 days 4 hrs ago0x0eca22de33faac4d6c5136f512ace576df8dee26OUT 0xcd56a66b9fe194d1cbdd249f99e6a3799b65af7b0 BNB0.00006846
0x3181f36986a80cc52d2f94dff058a7925e6b23729499f329e7ea08af78549128Transfer68540092021-04-24 20:54:34277 days 5 hrs ago0x0eca22de33faac4d6c5136f512ace576df8dee26OUT 0xcd56a66b9fe194d1cbdd249f99e6a3799b65af7b0 BNB0.00048374
0x87b1eb5cc6a0e8f5407489ebce617922f51a79856f7c2983c19434934acc6ece0x0eed262f68539572021-04-24 20:51:58277 days 5 hrs ago0x0eca22de33faac4d6c5136f512ace576df8dee26OUT 0x9c55c9e02295b3e8c00501358e8289afc8b39edf0.6 BNB0.022126865
[ Download CSV Export 
Latest 3 internal transactions
Parent Txn Hash Block From To Value
0x50f893d1fba015719abc476cf08f829cbcb0b9fbf220a1cd4545431a3677da9696677082021-08-01 20:39:28178 days 5 hrs ago Binance: WBNB Token0x0eca22de33faac4d6c5136f512ace576df8dee2613.258301120663657171 BNB
0x4beb30fe0142ba90fb6ba89924571b009c22823b73b3cde1aae3c5343671e0ef68593512021-04-25 1:22:28277 days 1 hr ago PancakeSwap: Router0x0eca22de33faac4d6c5136f512ace576df8dee261.560859663912434528 BNB
0x7f995cc5b63b9821a36b1e8d475d12aa98ba6dbb93143cadddada338c325dbb568553262021-04-24 22:00:33277 days 4 hrs ago 0x1869738a226023e7fd400aed558f708c173fa5950x0eca22de33faac4d6c5136f512ace576df8dee267.056 BNB
[ Download CSV Export 
Loading

Contract Name:
0 BNB

Compiler Version
0

Optimization Enabled:
0 BNB

Other Settings:
-NA-
Block Transaction Gas Used Reward
Age Block Fee Address BC Fee Address Voting Power Jailed Incoming
Block Uncle Number Difficulty Gas Used Reward
Loading
Loading
Make sure to use the "Vote Down" button for any spammy posts, and the "Vote Up" for interesting conversations.